Time;durP1;ratioP1;P1;durP2;ratioP2;P2;SDS_P1;SDS_P2;PMS_P1;PMS_P2;Temp;Humidity;BMP_temperature;BMP_pressure;BME280_temperature;BME280_humidity;BME280_pressure;Samples;Min_cycle;Max_cycle;Signal;HPM_P1;HPM_P2
2023/06/07 00:00:54;;;;;;;2.92;2.55;;;17.50;79.00;;;;;;4975597;28;20343;-63
2023/06/07 00:03:21;;;;;;;7.57;3.20;;;17.50;79.00;;;;;;4975186;28;20520;-63
2023/06/07 00:05:47;;;;;;;3.50;2.80;;;17.50;79.00;;;;;;4975824;28;20038;-63
2023/06/07 00:08:13;;;;;;;3.10;2.72;;;17.50;78.90;;;;;;4974475;28;20466;-63
2023/06/07 00:10:39;;;;;;;5.70;2.65;;;17.40;79.00;;;;;;4975241;28;20165;-63
2023/06/07 00:13:05;;;;;;;4.85;3.00;;;17.50;79.00;;;;;;4977994;28;20086;-63
2023/06/07 00:15:31;;;;;;;3.35;2.50;;;17.50;79.10;;;;;;4978837;28;20372;-63
2023/06/07 00:17:59;;;;;;;3.17;2.70;;;17.40;79.00;;;;;;4978892;28;20034;-63
2023/06/07 00:20:30;;;;;;;2.70;2.50;;;17.40;79.00;;;;;;4978804;28;20106;-64
2023/06/07 00:22:56;;;;;;;3.10;2.80;;;17.40;78.90;;;;;;4977815;28;20030;-63
2023/06/07 00:25:25;;;;;;;3.08;2.72;;;17.40;79.00;;;;;;4978756;28;20042;-63
2023/06/07 00:27:52;;;;;;;5.93;2.58;;;17.30;79.00;;;;;;4978738;28;20030;-65
2023/06/07 00:30:18;;;;;;;4.78;3.10;;;17.30;79.00;;;;;;4978600;28;20472;-63
2023/06/07 00:32:45;;;;;;;4.85;3.00;;;17.30;79.00;;;;;;4978602;28;20035;-63
2023/06/07 00:35:11;;;;;;;3.53;3.10;;;17.20;79.00;;;;;;4978517;28;20030;-63
2023/06/07 00:37:38;;;;;;;2.65;2.45;;;17.20;79.10;;;;;;4978536;28;20088;-64
2023/06/07 00:40:05;;;;;;;6.25;2.65;;;17.20;79.20;;;;;;4978485;28;20018;-64
2023/06/07 00:42:32;;;;;;;3.85;2.40;;;17.10;79.20;;;;;;4978282;28;20496;-64
2023/06/07 00:44:58;;;;;;;2.88;2.13;;;17.10;79.20;;;;;;4978285;28;20031;-64
2023/06/07 00:47:26;;;;;;;4.43;2.63;;;17.00;79.20;;;;;;4978417;28;20038;-64
2023/06/07 00:49:53;;;;;;;2.90;2.45;;;17.10;79.20;;;;;;4978861;28;20022;-64
2023/06/07 00:52:20;;;;;;;4.25;2.53;;;17.00;79.30;;;;;;4978241;28;20031;-63
2023/06/07 00:54:47;;;;;;;2.10;1.90;;;17.00;79.30;;;;;;4977923;28;20023;-64
2023/06/07 00:57:15;;;;;;;3.45;1.85;;;17.00;79.20;;;;;;4978141;28;20035;-64
2023/06/07 00:59:42;;;;;;;1.48;1.38;;;17.00;79.20;;;;;;4978222;28;20023;-64
2023/06/07 01:02:08;;;;;;;2.20;1.55;;;17.00;79.10;;;;;;4978037;28;20058;-64
2023/06/07 01:04:40;;;;;;;3.50;1.90;;;17.00;79.10;;;;;;4977822;28;20038;-62
2023/06/07 01:07:07;;;;;;;1.83;1.60;;;17.10;79.00;;;;;;4977937;28;20038;-64
2023/06/07 01:09:34;;;;;;;2.13;1.50;;;17.10;78.90;;;;;;4977608;28;20420;-64
2023/06/07 01:12:02;;;;;;;4.97;1.30;;;17.10;78.80;;;;;;4977891;28;20077;-64
2023/06/07 01:14:30;;;;;;;2.13;1.60;;;17.10;78.70;;;;;;4977809;28;20030;-64
2023/06/07 01:16:57;;;;;;;2.80;1.67;;;17.10;78.70;;;;;;4977878;28;20309;-64
2023/06/07 01:19:28;;;;;;;1.33;1.23;;;17.10;78.60;;;;;;4978040;28;20022;-64
2023/06/07 01:22:08;;;;;;;3.83;1.58;;;17.10;78.60;;;;;;4977435;28;20034;-64
2023/06/07 01:24:35;;;;;;;2.38;1.65;;;17.00;78.60;;;;;;4977401;28;20050;-64
2023/06/07 01:27:04;;;;;;;2.13;1.02;;;17.00;78.60;;;;;;4977530;28;20034;-64
2023/06/07 01:29:30;;;;;;;1.50;1.40;;;17.00;78.60;;;;;;4977639;28;20023;-64
2023/06/07 01:32:05;;;;;;;2.47;1.23;;;17.00;78.50;;;;;;4976667;28;20334;-64
2023/06/07 01:34:33;;;;;;;3.45;1.48;;;17.00;78.50;;;;;;4977503;28;20022;-64
2023/06/07 01:37:00;;;;;;;1.23;1.13;;;17.00;78.60;;;;;;4977208;28;20440;-64
2023/06/07 01:39:26;;;;;;;2.78;1.38;;;17.00;78.60;;;;;;4977405;28;20019;-64
2023/06/07 01:41:53;;;;;;;2.60;1.50;;;17.00;78.60;;;;;;4977290;28;20444;-64
2023/06/07 01:44:20;;;;;;;2.35;1.38;;;16.90;78.60;;;;;;4977177;28;20019;-64
2023/06/07 01:46:47;;;;;;;2.15;1.23;;;16.90;78.50;;;;;;4977221;28;20114;-64
2023/06/07 01:49:13;;;;;;;4.30;1.65;;;16.90;78.50;;;;;;4977224;28;20453;-64
2023/06/07 01:51:39;;;;;;;1.23;1.10;;;16.90;78.60;;;;;;4976878;28;20030;-64
2023/06/07 01:54:06;;;;;;;1.30;1.20;;;16.90;78.60;;;;;;4977197;28;20078;-64
2023/06/07 01:56:52;;;;;;;2.97;1.30;;;16.90;78.60;;;;;;4976094;28;20075;-64
2023/06/07 01:59:45;;;;;;;3.42;1.60;;;16.90;78.50;;;;;;4977073;28;20030;-64
2023/06/07 02:02:25;;;;;;;1.42;1.33;;;16.90;78.60;;;;;;4976987;28;20049;-64
2023/06/07 02:04:57;;;;;;;1.83;1.30;;;16.90;78.60;;;;;;4976687;28;20053;-64
2023/06/07 02:07:28;;;;;;;1.23;1.00;;;16.90;78.60;;;;;;4976950;28;20033;-64
2023/06/07 02:09:56;;;;;;;1.90;1.48;;;16.80;78.50;;;;;;4977000;28;20030;-64
2023/06/07 02:12:22;;;;;;;1.50;1.27;;;16.80;78.60;;;;;;4976761;28;20041;-64
2023/06/07 02:14:52;;;;;;;3.60;1.60;;;16.80;78.60;;;;;;4976691;28;20073;-64
2023/06/07 02:17:19;;;;;;;3.65;1.48;;;16.90;78.60;;;;;;4976641;28;20043;-64
2023/06/07 02:19:46;;;;;;;2.22;1.50;;;16.80;78.70;;;;;;4976294;28;20030;-64
2023/06/07 02:22:14;;;;;;;4.75;2.03;;;16.80;78.80;;;;;;4976484;28;20035;-64
2023/06/07 02:24:41;;;;;;;1.35;1.25;;;16.90;78.80;;;;;;4976534;28;20023;-64
2023/06/07 02:27:08;;;;;;;1.88;1.33;;;16.90;78.90;;;;;;4976514;28;20452;-64
2023/06/07 02:29:35;;;;;;;1.80;1.38;;;16.90;78.90;;;;;;4976597;28;20037;-64
2023/06/07 02:32:01;;;;;;;2.35;2.00;;;16.90;79.00;;;;;;4976556;28;20027;-64
2023/06/07 02:34:29;;;;;;;3.15;1.70;;;17.00;79.10;;;;;;4975575;28;20035;-64
2023/06/07 02:36:55;;;;;;;5.90;1.80;;;17.00;79.10;;;;;;4976370;28;20030;-64
2023/06/07 02:39:21;;;;;;;2.28;2.00;;;17.00;79.10;;;;;;4976283;28;20022;-64
2023/06/07 02:41:47;;;;;;;2.00;1.80;;;17.10;79.20;;;;;;4976584;28;20158;-64
2023/06/07 02:44:13;;;;;;;3.08;1.88;;;17.10;79.10;;;;;;4976251;28;20026;-64
2023/06/07 02:46:39;;;;;;;1.50;1.40;;;17.10;79.20;;;;;;4976298;28;20090;-64
2023/06/07 02:49:05;;;;;;;2.53;1.60;;;17.10;79.20;;;;;;4976053;28;20042;-64
2023/06/07 02:51:31;;;;;;;2.38;1.65;;;17.10;79.20;;;;;;4976198;28;20026;-64
2023/06/07 02:53:57;;;;;;;2.40;1.80;;;17.20;79.20;;;;;;4976155;28;20027;-64
2023/06/07 02:56:28;;;;;;;5.32;1.90;;;17.20;79.20;;;;;;4976104;28;20109;-64
2023/06/07 02:58:54;;;;;;;2.17;1.98;;;17.20;79.20;;;;;;4976140;28;20464;-64
2023/06/07 03:01:21;;;;;;;1.85;1.75;;;17.30;79.30;;;;;;4976054;28;20030;-64
2023/06/07 03:03:48;;;;;;;2.17;1.85;;;17.30;79.30;;;;;;4975580;28;20051;-63
2023/06/07 03:06:15;;;;;;;4.97;1.83;;;17.30;79.30;;;;;;4976243;28;20033;-64
2023/06/07 03:08:41;;;;;;;1.90;1.70;;;17.30;79.30;;;;;;4976250;28;20138;-64
2023/06/07 03:11:07;;;;;;;2.33;1.63;;;17.40;79.30;;;;;;4976108;28;20030;-64
2023/06/07 03:13:33;;;;;;;2.10;1.90;;;17.40;79.30;;;;;;4976020;28;20095;-64
2023/06/07 03:15:59;;;;;;;1.85;1.65;;;17.40;79.30;;;;;;4975921;28;20030;-63
2023/06/07 03:18:24;;;;;;;1.95;1.75;;;17.40;79.30;;;;;;4975667;28;20035;-63
2023/06/07 03:20:50;;;;;;;4.00;1.60;;;17.40;79.20;;;;;;4976135;28;20045;-64
2023/06/07 03:23:16;;;;;;;2.65;1.52;;;17.40;79.20;;;;;;4974744;28;20499;-64
2023/06/07 03:25:42;;;;;;;1.38;1.27;;;17.40;79.20;;;;;;4975896;28;20026;-64
2023/06/07 03:28:08;;;;;;;4.00;1.92;;;17.40;79.20;;;;;;4975719;28;20158;-64
2023/06/07 03:30:34;;;;;;;2.17;1.80;;;17.50;79.10;;;;;;4975959;28;20106;-64
2023/06/07 03:33:01;;;;;;;2.13;1.67;;;17.50;79.00;;;;;;4975681;28;20022;-64
2023/06/07 03:35:26;;;;;;;2.22;1.70;;;17.50;79.00;;;;;;4975768;28;20464;-64
2023/06/07 03:37:52;;;;;;;1.90;1.70;;;17.50;79.00;;;;;;4975740;28;20030;-64
2023/06/07 03:40:18;;;;;;;2.03;1.60;;;17.60;78.90;;;;;;4975716;28;20039;-64
2023/06/07 03:42:44;;;;;;;2.20;1.65;;;17.60;78.90;;;;;;4975595;28;20074;-64
2023/06/07 03:45:10;;;;;;;2.00;1.42;;;17.60;78.80;;;;;;4975646;28;20035;-62
2023/06/07 03:47:37;;;;;;;2.92;1.65;;;17.60;78.80;;;;;;4977796;28;20037;-62
2023/06/07 03:50:04;;;;;;;2.00;1.77;;;17.70;78.80;;;;;;4979644;28;20460;-63
2023/06/07 03:52:30;;;;;;;3.47;2.05;;;17.80;78.80;;;;;;4979351;28;20034;-64
2023/06/07 03:54:55;;;;;;;4.00;2.00;;;17.80;78.80;;;;;;4979467;28;20026;-64
2023/06/07 03:57:21;;;;;;;3.28;1.85;;;17.90;78.80;;;;;;4979327;28;20384;-64
2023/06/07 03:59:47;;;;;;;4.25;1.95;;;18.00;78.80;;;;;;4979231;28;20125;-63
2023/06/07 04:02:13;;;;;;;2.00;1.70;;;18.00;78.80;;;;;;4979177;28;20042;-64
2023/06/07 04:04:39;;;;;;;3.42;2.25;;;18.10;78.70;;;;;;4978883;28;20050;-63
2023/06/07 04:07:07;;;;;;;4.57;2.17;;;18.20;78.70;;;;;;4979188;28;20042;-63
2023/06/07 04:09:33;;;;;;;2.72;2.28;;;18.30;78.40;;;;;;4979004;28;20428;-63
2023/06/07 04:11:59;;;;;;;3.05;1.92;;;18.40;78.30;;;;;;4978982;28;20018;-63
2023/06/07 04:14:24;;;;;;;3.70;2.47;;;18.50;78.20;;;;;;4979003;28;20023;-63
2023/06/07 04:16:51;;;;;;;5.50;2.90;;;18.60;78.20;;;;;;4977660;28;20077;-63
2023/06/07 04:19:17;;;;;;;5.22;2.75;;;18.70;77.90;;;;;;4978842;28;20353;-63
2023/06/07 04:21:42;;;;;;;4.85;2.70;;;18.90;77.70;;;;;;4978939;28;20023;-63
2023/06/07 04:24:08;;;;;;;5.47;2.92;;;19.10;77.60;;;;;;4978676;28;20511;-63
2023/06/07 04:26:35;;;;;;;4.63;2.85;;;19.30;77.20;;;;;;4977727;28;20022;-63
2023/06/07 04:29:02;;;;;;;3.78;2.65;;;19.50;76.80;;;;;;4978655;28;20094;-63
2023/06/07 04:31:33;;;;;;;4.10;2.70;;;19.70;76.50;;;;;;4978375;28;20030;-63
2023/06/07 04:34:01;;;;;;;6.38;2.72;;;19.90;76.20;;;;;;4977574;28;20427;-63
2023/06/07 04:36:30;;;;;;;3.72;2.50;;;20.20;75.80;;;;;;4978832;28;20030;-63
2023/06/07 04:38:56;;;;;;;2.67;1.70;;;20.30;75.40;;;;;;4978570;28;20357;-63
2023/06/07 04:41:30;;;;;;;1.85;1.65;;;20.40;75.10;;;;;;4978723;28;20387;-63
2023/06/07 04:43:58;;;;;;;1.50;1.40;;;20.40;74.90;;;;;;4978281;28;20046;-63
2023/06/07 04:46:26;;;;;;;5.90;1.65;;;20.40;74.80;;;;;;4977295;28;20026;-63
2023/06/07 04:48:52;;;;;;;4.53;1.60;;;20.40;74.80;;;;;;4978355;28;20081;-63
2023/06/07 04:51:20;;;;;;;3.83;2.30;;;20.30;74.80;;;;;;4978286;28;20098;-66
2023/06/07 04:53:49;;;;;;;2.40;2.20;;;20.30;74.80;;;;;;4978115;28;20475;-63
2023/06/07 04:56:15;;;;;;;5.93;2.75;;;20.30;74.80;;;;;;4978281;28;20023;-63
2023/06/07 04:58:41;;;;;;;5.35;2.30;;;20.40;74.80;;;;;;4977783;28;20037;-63
2023/06/07 05:01:10;;;;;;;2.70;2.20;;;20.50;74.70;;;;;;4977907;28;20031;-63
2023/06/07 05:03:40;;;;;;;3.38;2.58;;;20.70;74.70;;;;;;4976728;28;20031;-63
2023/06/07 05:06:06;;;;;;;6.65;3.60;;;21.20;74.40;;;;;;4978068;28;20038;-63
2023/06/07 05:08:32;;;;;;;4.20;2.70;;;21.70;74.00;;;;;;4978029;28;20019;-63
2023/06/07 05:10:58;;;;;;;4.75;2.97;;;22.20;73.00;;;;;;4978172;28;20027;-63
2023/06/07 05:13:25;;;;;;;3.83;2.60;;;22.70;72.20;;;;;;4977800;28;20053;-63
2023/06/07 05:15:52;;;;;;;6.88;2.83;;;23.00;71.40;;;;;;4977620;28;20039;-63
2023/06/07 05:18:20;;;;;;;3.40;2.80;;;23.20;70.60;;;;;;4978083;28;20041;-63
2023/06/07 05:20:48;;;;;;;4.28;3.03;;;23.40;70.00;;;;;;4977620;28;20414;-63
2023/06/07 05:23:17;;;;;;;5.78;3.95;;;23.60;69.70;;;;;;4977498;28;20034;-64
2023/06/07 05:25:46;;;;;;;10.27;3.30;;;23.90;69.50;;;;;;4977569;28;20034;-64
2023/06/07 05:28:13;;;;;;;8.52;3.28;;;24.30;68.70;;;;;;4977605;28;20093;-68
2023/06/07 05:30:39;;;;;;;9.60;3.13;;;24.50;68.00;;;;;;4977337;28;20389;-69
2023/06/07 05:33:06;;;;;;;5.30;3.70;;;24.50;67.50;;;;;;4977469;28;20475;-69
2023/06/07 05:35:33;;;;;;;3.95;2.90;;;24.70;67.20;;;;;;4977590;28;20045;-69
2023/06/07 05:37:59;;;;;;;6.45;2.88;;;24.90;67.10;;;;;;4977443;28;20385;-69
2023/06/07 05:40:25;;;;;;;7.80;3.10;;;25.10;66.50;;;;;;4977661;28;20050;-69
2023/06/07 05:42:51;;;;;;;3.42;2.90;;;25.40;66.30;;;;;;4977328;28;20360;-69
2023/06/07 05:45:17;;;;;;;4.32;2.70;;;25.70;65.80;;;;;;4977212;28;20071;-69
2023/06/07 05:47:46;;;;;;;4.53;2.67;;;25.90;65.00;;;;;;4977299;28;20034;-69
2023/06/07 05:50:14;;;;;;;3.25;2.33;;;25.80;64.70;;;;;;4977501;28;20121;-70
2023/06/07 05:52:41;;;;;;;4.07;2.38;;;25.60;64.60;;;;;;4977235;28;20031;-68
2023/06/07 05:55:07;;;;;;;3.25;2.30;;;25.50;64.50;;;;;;4977061;28;20086;-68
2023/06/07 05:57:35;;;;;;;5.38;3.20;;;25.60;64.70;;;;;;4976723;28;20086;-67
2023/06/07 06:00:04;;;;;;;4.45;3.20;;;26.10;64.40;;;;;;4976962;28;20532;-67
2023/06/07 06:02:30;;;;;;;7.00;3.42;;;26.90;63.40;;;;;;4975908;28;20035;-67
2023/06/07 06:04:58;;;;;;;4.47;2.67;;;28.00;61.80;;;;;;4976633;28;20066;-67
2023/06/07 06:07:23;;;;;;;4.60;2.20;;;29.30;59.90;;;;;;4977079;28;20031;-67
2023/06/07 06:09:50;;;;;;;6.00;3.00;;;30.60;58.00;;;;;;4976067;28;20033;-67
2023/06/07 06:12:16;;;;;;;5.68;2.85;;;31.90;55.70;;;;;;4976879;28;20027;-67
2023/06/07 06:14:41;;;;;;;4.30;3.03;;;33.20;53.60;;;;;;4976969;28;20052;-67
2023/06/07 06:17:07;;;;;;;5.57;2.95;;;34.40;51.30;;;;;;4976718;28;20093;-66
2023/06/07 06:19:33;;;;;;;4.85;2.70;;;35.40;48.70;;;;;;4976617;28;20088;-66
2023/06/07 06:22:00;;;;;;;4.95;2.40;;;36.50;46.40;;;;;;4976577;28;20023;-67
2023/06/07 06:24:25;;;;;;;6.07;2.60;;;37.30;44.40;;;;;;4976441;28;20023;-67
2023/06/07 06:26:51;;;;;;;4.10;2.20;;;37.90;42.70;;;;;;4976316;28;20019;-67
2023/06/07 06:29:17;;;;;;;3.65;2.67;;;38.60;41.00;;;;;;4976562;28;20019;-67
2023/06/07 06:31:43;;;;;;;5.38;2.90;;;39.20;39.40;;;;;;4976689;28;20037;-67
2023/06/07 06:34:10;;;;;;;3.83;2.25;;;39.70;38.20;;;;;;4976342;28;20120;-67
2023/06/07 06:36:36;;;;;;;3.20;2.40;;;40.10;37.10;;;;;;4976364;28;20034;-67
2023/06/07 06:39:04;;;;;;;4.38;2.67;;;40.20;36.20;;;;;;4976322;28;20030;-67
2023/06/07 06:41:30;;;;;;;2.40;2.03;;;39.60;36.20;;;;;;4975008;28;20464;-67
2023/06/07 06:43:56;;;;;;;3.08;2.10;;;38.60;36.60;;;;;;4976401;28;20027;-67
2023/06/07 06:46:23;;;;;;;3.13;2.25;;;37.50;37.90;;;;;;4976209;28;20098;-67
2023/06/07 06:48:49;;;;;;;2.33;2.13;;;36.40;39.00;;;;;;4976238;28;20027;-67
2023/06/07 06:51:15;;;;;;;2.42;1.70;;;35.30;40.60;;;;;;4976258;28;20110;-67
2023/06/07 06:53:41;;;;;;;2.65;1.63;;;34.30;41.80;;;;;;4975094;28;20118;-67
2023/06/07 06:56:07;;;;;;;2.95;2.10;;;33.50;43.30;;;;;;4975975;28;20062;-67
2023/06/07 06:58:34;;;;;;;3.38;1.92;;;32.90;44.30;;;;;;4976065;28;20428;-67
2023/06/07 07:01:02;;;;;;;2.33;1.95;;;32.30;45.10;;;;;;4975996;28;20149;-67
2023/06/07 07:03:28;;;;;;;3.83;1.92;;;31.80;46.00;;;;;;4975649;28;20027;-67
2023/06/07 07:05:54;;;;;;;2.60;2.15;;;31.40;46.80;;;;;;4976042;28;20058;-67
2023/06/07 07:08:20;;;;;;;3.72;2.33;;;31.10;47.30;;;;;;4975991;28;20030;-67
2023/06/07 07:10:47;;;;;;;5.47;2.40;;;30.90;47.60;;;;;;4974759;28;20376;-67
2023/06/07 07:13:14;;;;;;;2.90;2.40;;;30.60;47.90;;;;;;4974881;28;20360;-67
2023/06/07 07:15:40;;;;;;;4.18;2.60;;;30.40;48.60;;;;;;4975816;28;20474;-67
2023/06/07 07:18:07;;;;;;;2.60;2.40;;;30.30;48.80;;;;;;4975882;28;20154;-67
2023/06/07 07:20:34;;;;;;;3.80;2.33;;;30.20;49.10;;;;;;4976242;28;20023;-67
2023/06/07 07:23:02;;;;;;;3.35;2.38;;;30.20;49.10;;;;;;4978758;28;20387;-67
2023/06/07 07:25:28;;;;;;;2.38;2.15;;;30.20;49.10;;;;;;4979528;28;20094;-67
2023/06/07 07:27:54;;;;;;;2.78;2.58;;;30.40;49.00;;;;;;4978753;28;20363;-67
2023/06/07 07:30:20;;;;;;;3.47;2.55;;;30.40;48.90;;;;;;4979741;28;20031;-67
2023/06/07 07:32:46;;;;;;;3.95;2.63;;;30.40;48.80;;;;;;4979656;28;20109;-67
2023/06/07 07:35:12;;;;;;;5.03;2.80;;;30.50;48.80;;;;;;4979576;28;20448;-67
2023/06/07 07:37:39;;;;;;;4.50;2.67;;;30.50;48.70;;;;;;4979603;28;20042;-67
2023/06/07 07:40:08;;;;;;;3.80;2.75;;;30.60;48.80;;;;;;4979268;28;20046;-67
2023/06/07 07:42:35;;;;;;;3.40;2.70;;;30.70;48.70;;;;;;4979476;28;20515;-67
2023/06/07 07:45:01;;;;;;;3.40;2.33;;;30.70;48.60;;;;;;4978693;28;20030;-67
2023/06/07 07:47:27;;;;;;;2.80;2.55;;;30.70;48.50;;;;;;4979437;28;20091;-67
2023/06/07 07:49:53;;;;;;;4.35;2.70;;;30.80;48.20;;;;;;4979401;28;20409;-67
2023/06/07 07:52:19;;;;;;;4.40;2.70;;;30.80;48.10;;;;;;4979380;28;20023;-67
2023/06/07 07:54:45;;;;;;;3.00;2.70;;;30.80;47.80;;;;;;4978984;28;20338;-67
2023/06/07 07:57:11;;;;;;;3.17;2.88;;;30.70;47.70;;;;;;4978326;28;20023;-67
2023/06/07 07:59:36;;;;;;;4.25;3.08;;;30.60;47.80;;;;;;4979158;28;20038;-67
2023/06/07 08:02:03;;;;;;;3.88;3.03;;;30.60;47.80;;;;;;4979120;28;20015;-67
2023/06/07 08:04:30;;;;;;;3.70;2.85;;;30.40;48.00;;;;;;4973494;28;20078;-67
2023/06/07 08:06:56;;;;;;;5.38;3.50;;;30.20;48.10;;;;;;4979025;28;20031;-67
2023/06/07 08:09:22;;;;;;;3.88;2.88;;;30.20;48.30;;;;;;4978764;28;20502;-67
2023/06/07 08:11:48;;;;;;;5.32;3.42;;;30.10;48.60;;;;;;4978978;28;20034;-67
2023/06/07 08:14:15;;;;;;;4.70;3.90;;;30.00;48.40;;;;;;4978876;28;20077;-67
2023/06/07 08:16:41;;;;;;;4.43;3.20;;;29.90;48.00;;;;;;4978842;28;20033;-67
2023/06/07 08:19:07;;;;;;;4.72;3.28;;;29.60;48.50;;;;;;4978833;28;20027;-67
2023/06/07 08:21:33;;;;;;;4.43;3.22;;;29.50;48.80;;;;;;4978778;28;20457;-67
2023/06/07 08:24:00;;;;;;;4.05;2.95;;;29.50;49.20;;;;;;4978320;28;20476;-67
2023/06/07 08:26:27;;;;;;;4.85;3.10;;;29.50;49.20;;;;;;4978710;28;20023;-67
2023/06/07 08:28:53;;;;;;;3.90;2.58;;;29.40;48.50;;;;;;4978660;28;20029;-67
2023/06/07 08:31:19;;;;;;;4.97;3.13;;;29.30;48.70;;;;;;4978620;28;20109;-67
2023/06/07 08:33:45;;;;;;;6.38;3.22;;;29.30;48.90;;;;;;4977588;28;20081;-67
2023/06/07 08:36:11;;;;;;;4.03;2.80;;;29.30;49.10;;;;;;4978506;28;20027;-67
2023/06/07 08:38:41;;;;;;;4.18;2.95;;;29.20;49.40;;;;;;4978202;28;20030;-67
2023/06/07 08:41:07;;;;;;;5.05;3.20;;;29.30;49.50;;;;;;4977608;28;20033;-67
2023/06/07 08:43:35;;;;;;;4.50;3.15;;;29.40;49.70;;;;;;4978223;28;20051;-67
2023/06/07 08:46:05;;;;;;;3.42;2.85;;;29.40;49.70;;;;;;4978456;28;20037;-67
2023/06/07 08:48:34;;;;;;;4.97;3.47;;;29.30;49.80;;;;;;4978339;28;20396;-67
2023/06/07 08:51:07;;;;;;;4.68;2.83;;;29.30;49.90;;;;;;4978228;28;20030;-67
2023/06/07 08:53:45;;;;;;;5.40;3.72;;;29.30;50.00;;;;;;4977930;28;20035;-67
2023/06/07 08:56:12;;;;;;;5.38;4.05;;;29.30;50.00;;;;;;4978198;28;20082;-67
2023/06/07 08:58:39;;;;;;;3.85;3.22;;;29.30;49.90;;;;;;4977268;28;20034;-67
2023/06/07 09:01:05;;;;;;;4.18;3.33;;;29.10;50.30;;;;;;4978021;28;20050;-67
2023/06/07 09:03:32;;;;;;;4.93;3.30;;;29.10;50.60;;;;;;4977626;28;20026;-67
2023/06/07 09:05:57;;;;;;;4.53;3.08;;;29.10;50.60;;;;;;4977886;28;20062;-67
2023/06/07 09:08:23;;;;;;;5.63;3.30;;;29.20;50.60;;;;;;4978003;28;20026;-67
2023/06/07 09:10:50;;;;;;;4.57;3.28;;;29.20;50.40;;;;;;4976950;28;20357;-67
2023/06/07 09:13:21;;;;;;;4.10;2.97;;;29.30;50.40;;;;;;4977782;28;20022;-67
2023/06/07 09:15:49;;;;;;;4.13;3.30;;;29.40;50.40;;;;;;4977831;28;20133;-67
2023/06/07 09:18:15;;;;;;;4.32;3.22;;;29.40;50.30;;;;;;4977766;28;20444;-67
2023/06/07 09:20:41;;;;;;;3.50;3.17;;;29.50;50.30;;;;;;4977487;28;20071;-67
2023/06/07 09:23:11;;;;;;;4.57;3.50;;;29.70;50.30;;;;;;4977517;28;20035;-67
2023/06/07 09:25:40;;;;;;;3.60;3.13;;;29.80;50.20;;;;;;4977657;28;20025;-67
2023/06/07 09:28:13;;;;;;;5.38;3.47;;;29.90;50.40;;;;;;4977521;28;20027;-67
2023/06/07 09:30:56;;;;;;;3.58;3.10;;;30.00;50.10;;;;;;4977531;28;20027;-67
2023/06/07 09:33:27;;;;;;;4.90;3.50;;;30.10;49.60;;;;;;4977390;28;20027;-67
2023/06/07 09:36:10;;;;;;;5.22;3.70;;;30.10;50.10;;;;;;4977128;28;20128;-67
2023/06/07 09:38:37;;;;;;;5.03;3.90;;;30.20;49.80;;;;;;4977477;28;20337;-67
2023/06/07 09:41:05;;;;;;;5.90;4.30;;;30.30;49.90;;;;;;4977291;28;20026;-67
2023/06/07 09:43:47;;;;;;;6.47;4.10;;;30.20;49.50;;;;;;4977290;28;20341;-67
2023/06/07 09:46:14;;;;;;;6.25;4.22;;;30.10;48.90;;;;;;4977142;28;20116;-66
2023/06/07 09:48:48;;;;;;;6.65;3.95;;;30.00;49.50;;;;;;4977163;28;20500;-66
2023/06/07 09:51:15;;;;;;;5.85;4.00;;;30.00;49.40;;;;;;4977071;28;20023;-67
2023/06/07 09:53:54;;;;;;;5.20;3.55;;;29.90;49.50;;;;;;4977046;28;20465;-67
2023/06/07 09:56:21;;;;;;;4.50;3.40;;;29.90;49.60;;;;;;4977009;28;20075;-67
2023/06/07 09:58:51;;;;;;;6.45;4.07;;;29.90;49.90;;;;;;4976947;28;20456;-67
2023/06/07 10:01:45;;;;;;;6.13;4.18;;;30.00;49.90;;;;;;4976957;28;20105;-67
2023/06/07 10:04:11;;;;;;;;;;;30.00;49.10;;;;;;4976749;28;20042;-67
2023/06/07 10:06:41;;;;;;;2.92;2.65;;;29.90;49.10;;;;;;4976887;28;19906;-67
2023/06/07 10:09:09;;;;;;;3.13;2.70;;;29.90;49.60;;;;;;4975797;28;20022;-67
2023/06/07 10:11:37;;;;;;;3.22;2.72;;;29.90;49.30;;;;;;4976774;28;20339;-67
2023/06/07 10:14:14;;;;;;;2.85;2.30;;;29.90;49.00;;;;;;4976667;28;20134;-67
2023/06/07 10:17:02;;;;;;;2.78;1.80;;;29.90;48.80;;;;;;4976754;28;20529;-67
2023/06/07 10:19:41;;;;;;;3.17;2.72;;;29.90;48.20;;;;;;4975457;28;20031;-67
2023/06/07 10:22:18;;;;;;;3.65;2.83;;;29.80;48.30;;;;;;4976626;28;20077;-67
2023/06/07 10:24:49;;;;;;;1.60;1.50;;;29.90;48.50;;;;;;4976555;28;20352;-67
2023/06/07 10:27:20;;;;;;;1.30;1.20;;;29.90;48.50;;;;;;4976567;28;20023;-67
2023/06/07 10:30:10;;;;;;;1.70;1.60;;;30.00;48.40;;;;;;4976791;28;20322;-67
2023/06/07 10:32:38;;;;;;;2.55;1.65;;;30.00;47.10;;;;;;4976703;28;20042;-67
2023/06/07 10:35:09;;;;;;;1.67;1.58;;;30.10;48.10;;;;;;4976064;28;20051;-67
2023/06/07 10:37:40;;;;;;;1.40;1.30;;;30.20;48.00;;;;;;4976472;28;20027;-67
2023/06/07 10:40:11;;;;;;;1.75;1.65;;;30.30;48.30;;;;;;4976270;28;20456;-67
2023/06/07 10:42:59;;;;;;;1.77;1.67;;;30.40;47.90;;;;;;4976514;28;20085;-67
2023/06/07 10:45:26;;;;;;;1.88;1.70;;;30.40;47.20;;;;;;4976027;28;20456;-67
2023/06/07 10:47:53;;;;;;;1.90;1.73;;;30.40;47.60;;;;;;4975872;28;20022;-67
2023/06/07 10:55:33;;;;;;;1.98;1.77;;;30.50;47.40;;;;;;4975689;28;20126;-68
2023/06/07 10:58:01;;;;;;;2.33;2.00;;;30.50;47.50;;;;;;4976214;28;20038;-67
2023/06/07 11:00:38;;;;;;;2.83;2.45;;;30.60;47.70;;;;;;4975952;28;20125;-67
2023/06/07 11:03:09;;;;;;;4.03;3.13;;;30.70;47.30;;;;;;4975796;28;20033;-67
2023/06/07 11:05:53;;;;;;;2.83;2.35;;;30.70;47.40;;;;;;4975783;28;20074;-68
2023/06/07 11:08:28;;;;;;;3.03;2.30;;;30.70;44.20;;;;;;4975895;28;20038;-68
2023/06/07 11:11:05;;;;;;;4.30;3.47;;;30.70;46.50;;;;;;4976151;28;20066;-68
2023/06/07 11:13:43;;;;;;;3.10;2.60;;;30.60;44.90;;;;;;4975960;28;20487;-68
2023/06/07 11:16:24;;;;;;;4.15;3.20;;;30.50;46.10;;;;;;4974882;28;20035;-68
2023/06/07 11:18:53;;;;;;;3.97;3.00;;;30.50;46.40;;;;;;4975914;28;20089;-67
2023/06/07 11:21:19;;;;;;;5.13;3.55;;;30.40;46.90;;;;;;4975818;28;20391;-68
2023/06/07 11:23:45;;;;;;;5.32;3.30;;;30.40;46.50;;;;;;4975980;28;20019;-68
2023/06/07 11:26:12;;;;;;;5.40;3.60;;;30.20;46.60;;;;;;4975788;28;20030;-68
2023/06/07 11:28:40;;;;;;;4.20;3.28;;;30.00;46.20;;;;;;4975798;28;20058;-67
2023/06/07 11:31:11;;;;;;;4.40;3.20;;;30.00;46.70;;;;;;4975435;28;20027;-68
2023/06/07 11:33:40;;;;;;;5.00;3.17;;;30.00;46.80;;;;;;4975698;28;20031;-68
2023/06/07 11:36:09;;;;;;;4.40;2.97;;;30.00;46.40;;;;;;4975973;28;20038;-68
2023/06/07 11:38:35;;;;;;;5.65;3.40;;;29.90;46.30;;;;;;4975667;28;20030;-68
2023/06/07 11:41:03;;;;;;;5.07;3.10;;;29.90;46.60;;;;;;4975682;28;20448;-67
2023/06/07 11:43:31;;;;;;;4.22;2.70;;;29.80;46.30;;;;;;4975423;28;20030;-68
2023/06/07 11:45:59;;;;;;;3.30;2.63;;;29.60;46.80;;;;;;4975574;28;20356;-68
2023/06/07 11:48:49;;;;;;;3.75;2.75;;;29.60;47.20;;;;;;4975472;28;20038;-68
2023/06/07 11:53:46;;;;;;;4.63;3.10;;;29.00;47.80;;;;;;4975944;28;20154;-68
2023/06/07 11:56:14;;;;;;;3.10;2.60;;;28.80;48.30;;;;;;4975477;28;20460;-67
2023/06/07 11:58:40;;;;;;;3.28;2.60;;;28.60;48.60;;;;;;4975707;28;20132;-67
2023/06/07 12:01:07;;;;;;;3.75;2.45;;;28.50;48.70;;;;;;4975381;28;20109;-68
2023/06/07 12:03:34;;;;;;;3.65;2.45;;;28.50;49.00;;;;;;4975056;28;20033;-68
2023/06/07 12:06:00;;;;;;;4.85;2.97;;;28.50;49.40;;;;;;4975450;28;20421;-68
2023/06/07 12:08:31;;;;;;;3.03;2.60;;;28.50;49.70;;;;;;4977077;28;20046;-68
2023/06/07 12:10:57;;;;;;;2.92;2.50;;;28.60;49.90;;;;;;4978954;28;20369;-68
2023/06/07 12:13:23;;;;;;;3.30;2.33;;;28.50;49.90;;;;;;4978852;28;20372;-67
2023/06/07 12:15:53;;;;;;;4.38;2.90;;;28.50;50.00;;;;;;4978698;28;20468;-68
2023/06/07 12:18:27;;;;;;;3.95;2.70;;;28.60;50.10;;;;;;4977953;28;20038;-68
2023/06/07 12:21:06;;;;;;;3.42;2.60;;;28.60;50.20;;;;;;4978869;28;20469;-69
2023/06/07 12:23:37;;;;;;;4.70;2.90;;;28.60;49.90;;;;;;4978928;28;20045;-69
2023/06/07 12:26:16;;;;;;;4.75;2.90;;;28.60;50.00;;;;;;4978693;28;20444;-69
2023/06/07 12:28:43;;;;;;;4.53;3.05;;;28.60;49.80;;;;;;4978795;28;20093;-69
2023/06/07 12:31:22;;;;;;;3.45;2.60;;;28.60;50.00;;;;;;4978525;28;20081;-68
2023/06/07 12:33:58;;;;;;;3.55;2.75;;;28.60;49.90;;;;;;4978905;28;20459;-68
2023/06/07 12:36:28;;;;;;;4.55;3.47;;;28.70;49.40;;;;;;4977596;28;20027;-68
2023/06/07 12:38:54;;;;;;;5.63;3.65;;;28.80;49.90;;;;;;4978458;28;20023;-68
2023/06/07 12:41:23;;;;;;;6.07;4.55;;;28.80;50.20;;;;;;4978444;28;20040;-68
2023/06/07 12:43:49;;;;;;;4.72;4.03;;;28.90;50.30;;;;;;4978306;28;20098;-68
2023/06/07 12:46:15;;;;;;;5.25;4.47;;;28.90;50.20;;;;;;4978411;28;20326;-68
2023/06/07 12:48:42;;;;;;;6.35;4.20;;;28.90;50.20;;;;;;4978361;28;20015;-69
2023/06/07 12:51:08;;;;;;;7.07;4.60;;;29.00;50.30;;;;;;4978479;28;20062;-68
2023/06/07 12:53:35;;;;;;;5.82;4.30;;;29.10;50.00;;;;;;4978240;28;20030;-68
2023/06/07 12:56:01;;;;;;;7.63;5.38;;;29.20;49.70;;;;;;4978190;28;20484;-69
2023/06/07 12:58:27;;;;;;;8.75;4.85;;;29.30;49.50;;;;;;4977916;28;20069;-68
2023/06/07 13:00:53;;;;;;;6.65;4.60;;;29.30;49.50;;;;;;4978106;28;20078;-68